sensor_id;sensor_type;location;lat;lon;timestamp;P1;durP1;ratioP1;P2;durP2;ratioP2
25649;SDS011;13505;45.196;5.696;2022-07-05T04:05:20;5.90;;;1.77;;
25649;SDS011;13505;45.196;5.696;2022-07-05T04:10:10;4.00;;;1.60;;
25649;SDS011;13505;45.196;5.696;2022-07-05T04:15:01;2.42;;;1.95;;
25649;SDS011;13505;45.196;5.696;2022-07-05T04:19:51;3.63;;;1.70;;
25649;SDS011;13505;45.196;5.696;2022-07-05T04:24:41;2.55;;;1.45;;
25649;SDS011;13505;45.196;5.696;2022-07-05T04:29:50;1.80;;;1.50;;
25649;SDS011;13505;45.196;5.696;2022-07-05T04:34:41;3.38;;;1.65;;
25649;SDS011;13505;45.196;5.696;2022-07-05T04:39:31;9.35;;;1.58;;
25649;SDS011;13505;45.196;5.696;2022-07-05T04:44:22;3.50;;;1.57;;
25649;SDS011;13505;45.196;5.696;2022-07-05T04:49:12;8.33;;;1.60;;
25649;SDS011;13505;45.196;5.696;2022-07-05T04:54:02;4.77;;;1.63;;
25649;SDS011;13505;45.196;5.696;2022-07-05T04:58:53;4.57;;;1.90;;
25649;SDS011;13505;45.196;5.696;2022-07-05T05:03:43;2.58;;;1.73;;
25649;SDS011;13505;45.196;5.696;2022-07-05T05:08:33;5.28;;;2.00;;
25649;SDS011;13505;45.196;5.696;2022-07-05T05:13:24;4.87;;;1.70;;
25649;SDS011;13505;45.196;5.696;2022-07-05T05:18:14;2.93;;;1.57;;
25649;SDS011;13505;45.196;5.696;2022-07-05T05:23:05;6.53;;;1.50;;
25649;SDS011;13505;45.196;5.696;2022-07-05T05:27:55;3.22;;;1.50;;
25649;SDS011;13505;45.196;5.696;2022-07-05T05:32:46;2.58;;;1.42;;
25649;SDS011;13505;45.196;5.696;2022-07-05T05:37:48;3.92;;;1.80;;
25649;SDS011;13505;45.196;5.696;2022-07-05T05:42:40;2.22;;;1.42;;
25649;SDS011;13505;45.196;5.696;2022-07-05T05:47:30;2.50;;;1.57;;
25649;SDS011;13505;45.196;5.696;2022-07-05T05:52:21;8.90;;;2.23;;
25649;SDS011;13505;45.196;5.696;2022-07-05T05:57:11;6.28;;;1.70;;
25649;SDS011;13505;45.196;5.696;2022-07-05T06:02:01;8.20;;;2.27;;
25649;SDS011;13505;45.196;5.696;2022-07-05T06:06:52;7.50;;;2.00;;
25649;SDS011;13505;45.196;5.696;2022-07-05T06:11:42;6.13;;;1.77;;
25649;SDS011;13505;45.196;5.696;2022-07-05T06:16:32;3.85;;;1.55;;
25649;SDS011;13505;45.196;5.696;2022-07-05T06:21:23;4.20;;;2.00;;
25649;SDS011;13505;45.196;5.696;2022-07-05T06:26:13;5.13;;;1.80;;
25649;SDS011;13505;45.196;5.696;2022-07-05T06:31:03;7.03;;;2.00;;
25649;SDS011;13505;45.196;5.696;2022-07-05T06:35:53;3.43;;;1.77;;
25649;SDS011;13505;45.196;5.696;2022-07-05T06:40:44;4.85;;;1.80;;
25649;SDS011;13505;45.196;5.696;2022-07-05T06:45:34;6.93;;;2.10;;
25649;SDS011;13505;45.196;5.696;2022-07-05T06:50:25;7.43;;;1.70;;
25649;SDS011;13505;45.196;5.696;2022-07-05T06:55:17;6.28;;;2.00;;
25649;SDS011;13505;45.196;5.696;2022-07-05T07:00:07;4.13;;;2.00;;
25649;SDS011;13505;45.196;5.696;2022-07-05T07:04:58;8.35;;;2.15;;
25649;SDS011;13505;45.196;5.696;2022-07-05T07:09:49;7.30;;;1.97;;
25649;SDS011;13505;45.196;5.696;2022-07-05T07:14:39;5.30;;;1.98;;
25649;SDS011;13505;45.196;5.696;2022-07-05T07:19:29;4.13;;;2.10;;
25649;SDS011;13505;45.196;5.696;2022-07-05T07:24:19;9.43;;;2.15;;
25649;SDS011;13505;45.196;5.696;2022-07-05T07:29:10;4.63;;;2.20;;
25649;SDS011;13505;45.196;5.696;2022-07-05T07:34:00;5.18;;;1.80;;
25649;SDS011;13505;45.196;5.696;2022-07-05T07:38:50;11.10;;;2.42;;
25649;SDS011;13505;45.196;5.696;2022-07-05T07:43:40;5.47;;;2.00;;
25649;SDS011;13505;45.196;5.696;2022-07-05T07:48:31;6.50;;;1.83;;
25649;SDS011;13505;45.196;5.696;2022-07-05T07:53:21;4.97;;;1.60;;
25649;SDS011;13505;45.196;5.696;2022-07-05T07:58:11;7.50;;;1.83;;
25649;SDS011;13505;45.196;5.696;2022-07-05T08:03:02;8.95;;;2.13;;
25649;SDS011;13505;45.196;5.696;2022-07-05T08:07:52;6.30;;;2.35;;
25649;SDS011;13505;45.196;5.696;2022-07-05T08:12:42;6.13;;;2.00;;
25649;SDS011;13505;45.196;5.696;2022-07-05T08:17:33;4.47;;;2.10;;
25649;SDS011;13505;45.196;5.696;2022-07-05T08:22:23;3.08;;;1.88;;
25649;SDS011;13505;45.196;5.696;2022-07-05T08:27:13;2.17;;;1.87;;
25649;SDS011;13505;45.196;5.696;2022-07-05T08:32:04;5.67;;;1.77;;
25649;SDS011;13505;45.196;5.696;2022-07-05T08:36:55;4.97;;;2.00;;
25649;SDS011;13505;45.196;5.696;2022-07-05T08:41:49;6.60;;;2.20;;
25649;SDS011;13505;45.196;5.696;2022-07-05T08:46:40;8.73;;;2.28;;
25649;SDS011;13505;45.196;5.696;2022-07-05T08:51:34;8.93;;;2.60;;
25649;SDS011;13505;45.196;5.696;2022-07-05T08:56:28;6.18;;;2.33;;
25649;SDS011;13505;45.196;5.696;2022-07-05T09:01:19;4.22;;;2.08;;
25649;SDS011;13505;45.196;5.696;2022-07-05T09:06:12;2.28;;;2.08;;
25649;SDS011;13505;45.196;5.696;2022-07-05T09:11:06;4.68;;;2.45;;
25649;SDS011;13505;45.196;5.696;2022-07-05T09:15:59;3.20;;;2.28;;
25649;SDS011;13505;45.196;5.696;2022-07-05T09:20:49;5.13;;;2.42;;
25649;SDS011;13505;45.196;5.696;2022-07-05T09:25:39;5.40;;;2.27;;
25649;SDS011;13505;45.196;5.696;2022-07-05T09:30:37;5.33;;;2.50;;
25649;SDS011;13505;45.196;5.696;2022-07-05T09:35:29;5.80;;;2.20;;
25649;SDS011;13505;45.196;5.696;2022-07-05T09:40:20;2.88;;;2.00;;
25649;SDS011;13505;45.196;5.696;2022-07-05T09:45:11;3.85;;;2.10;;
25649;SDS011;13505;45.196;5.696;2022-07-05T09:50:01;3.87;;;2.20;;
25649;SDS011;13505;45.196;5.696;2022-07-05T09:55:15;4.00;;;2.33;;
25649;SDS011;13505;45.196;5.696;2022-07-05T10:00:11;3.20;;;2.20;;
25649;SDS011;13505;45.196;5.696;2022-07-05T10:05:14;5.25;;;2.63;;
25649;SDS011;13505;45.196;5.696;2022-07-05T10:10:10;2.47;;;2.22;;
25649;SDS011;13505;45.196;5.696;2022-07-05T10:15:02;2.95;;;2.50;;
25649;SDS011;13505;45.196;5.696;2022-07-05T10:19:53;7.65;;;2.42;;
25649;SDS011;13505;45.196;5.696;2022-07-05T10:24:45;4.78;;;2.95;;
25649;SDS011;13505;45.196;5.696;2022-07-05T10:29:36;8.65;;;2.60;;
25649;SDS011;13505;45.196;5.696;2022-07-05T10:34:27;5.00;;;2.30;;
25649;SDS011;13505;45.196;5.696;2022-07-05T10:39:20;2.72;;;2.30;;
25649;SDS011;13505;45.196;5.696;2022-07-05T10:44:33;4.13;;;2.65;;
25649;SDS011;13505;45.196;5.696;2022-07-05T10:49:24;5.65;;;2.50;;
25649;SDS011;13505;45.196;5.696;2022-07-05T10:54:15;3.63;;;2.30;;
25649;SDS011;13505;45.196;5.696;2022-07-05T10:59:06;3.17;;;2.30;;
25649;SDS011;13505;45.196;5.696;2022-07-05T11:13:48;5.28;;;2.65;;
25649;SDS011;13505;45.196;5.696;2022-07-05T11:18:39;4.13;;;2.70;;
25649;SDS011;13505;45.196;5.696;2022-07-05T11:23:29;3.17;;;2.50;;
25649;SDS011;13505;45.196;5.696;2022-07-05T11:28:20;6.55;;;2.58;;
25649;SDS011;13505;45.196;5.696;2022-07-05T11:33:37;3.20;;;2.55;;
25649;SDS011;13505;45.196;5.696;2022-07-05T11:38:27;6.78;;;2.60;;
25649;SDS011;13505;45.196;5.696;2022-07-05T11:43:28;3.40;;;2.63;;
25649;SDS011;13505;45.196;5.696;2022-07-05T11:48:19;3.13;;;2.83;;
25649;SDS011;13505;45.196;5.696;2022-07-05T11:53:09;8.13;;;2.78;;
25649;SDS011;13505;45.196;5.696;2022-07-05T11:58:02;3.45;;;2.95;;
25649;SDS011;13505;45.196;5.696;2022-07-05T12:02:52;3.45;;;2.70;;
25649;SDS011;13505;45.196;5.696;2022-07-05T12:07:48;4.35;;;2.58;;
25649;SDS011;13505;45.196;5.696;2022-07-05T12:12:39;5.20;;;2.63;;
25649;SDS011;13505;45.196;5.696;2022-07-05T12:17:36;3.70;;;2.40;;
25649;SDS011;13505;45.196;5.696;2022-07-05T12:22:28;4.68;;;2.38;;
25649;SDS011;13505;45.196;5.696;2022-07-05T12:27:19;3.90;;;2.30;;
25649;SDS011;13505;45.196;5.696;2022-07-05T12:32:09;3.93;;;2.53;;
25649;SDS011;13505;45.196;5.696;2022-07-05T12:37:00;6.95;;;2.40;;
25649;SDS011;13505;45.196;5.696;2022-07-05T12:41:52;4.07;;;2.40;;
25649;SDS011;13505;45.196;5.696;2022-07-05T12:46:43;9.68;;;2.85;;
25649;SDS011;13505;45.196;5.696;2022-07-05T12:51:36;4.55;;;2.40;;
25649;SDS011;13505;45.196;5.696;2022-07-05T12:56:27;3.97;;;2.25;;
25649;SDS011;13505;45.196;5.696;2022-07-05T13:01:40;4.25;;;2.47;;
25649;SDS011;13505;45.196;5.696;2022-07-05T13:11:32;4.55;;;2.25;;
25649;SDS011;13505;45.196;5.696;2022-07-05T13:16:22;2.53;;;2.07;;
25649;SDS011;13505;45.196;5.696;2022-07-05T13:21:13;3.07;;;2.07;;
25649;SDS011;13505;45.196;5.696;2022-07-05T13:26:03;2.87;;;1.80;;
25649;SDS011;13505;45.196;5.696;2022-07-05T13:30:53;2.70;;;1.90;;
25649;SDS011;13505;45.196;5.696;2022-07-05T13:35:43;5.97;;;2.17;;
25649;SDS011;13505;45.196;5.696;2022-07-05T13:40:34;2.53;;;2.10;;
25649;SDS011;13505;45.196;5.696;2022-07-05T13:45:24;6.07;;;2.10;;
25649;SDS011;13505;45.196;5.696;2022-07-05T13:50:14;2.97;;;1.73;;
25649;SDS011;13505;45.196;5.696;2022-07-05T13:55:24;2.33;;;1.80;;
25649;SDS011;13505;45.196;5.696;2022-07-05T14:00:15;2.95;;;1.80;;
25649;SDS011;13505;45.196;5.696;2022-07-05T14:05:05;1.73;;;1.60;;
25649;SDS011;13505;45.196;5.696;2022-07-05T14:09:56;2.08;;;1.70;;
25649;SDS011;13505;45.196;5.696;2022-07-05T14:14:46;2.53;;;1.70;;
25649;SDS011;13505;45.196;5.696;2022-07-05T14:19:37;3.47;;;1.70;;
25649;SDS011;13505;45.196;5.696;2022-07-05T14:24:28;3.17;;;1.80;;
25649;SDS011;13505;45.196;5.696;2022-07-05T14:29:18;1.83;;;1.60;;
25649;SDS011;13505;45.196;5.696;2022-07-05T14:34:08;6.37;;;1.63;;
25649;SDS011;13505;45.196;5.696;2022-07-05T14:38:58;3.70;;;1.67;;
25649;SDS011;13505;45.196;5.696;2022-07-05T14:43:50;11.32;;;2.53;;
25649;SDS011;13505;45.196;5.696;2022-07-05T14:48:41;2.45;;;1.58;;
25649;SDS011;13505;45.196;5.696;2022-07-05T14:53:31;3.65;;;1.40;;
25649;SDS011;13505;45.196;5.696;2022-07-05T14:58:21;3.25;;;1.67;;
25649;SDS011;13505;45.196;5.696;2022-07-05T15:03:12;6.53;;;1.90;;
25649;SDS011;13505;45.196;5.696;2022-07-05T15:08:02;6.43;;;1.77;;
25649;SDS011;13505;45.196;5.696;2022-07-05T15:12:53;4.63;;;1.40;;
25649;SDS011;13505;45.196;5.696;2022-07-05T15:17:43;1.65;;;1.23;;
25649;SDS011;13505;45.196;5.696;2022-07-05T15:22:34;3.47;;;1.42;;
25649;SDS011;13505;45.196;5.696;2022-07-05T15:27:24;3.50;;;1.50;;
25649;SDS011;13505;45.196;5.696;2022-07-05T15:32:16;3.08;;;1.30;;
25649;SDS011;13505;45.196;5.696;2022-07-05T15:37:06;3.10;;;1.40;;
25649;SDS011;13505;45.196;5.696;2022-07-05T15:41:56;2.17;;;1.30;;
25649;SDS011;13505;45.196;5.696;2022-07-05T15:46:50;5.22;;;1.40;;
25649;SDS011;13505;45.196;5.696;2022-07-05T15:51:49;4.50;;;1.40;;
25649;SDS011;13505;45.196;5.696;2022-07-05T15:56:39;8.77;;;2.20;;
25649;SDS011;13505;45.196;5.696;2022-07-05T16:01:30;6.13;;;1.40;;
25649;SDS011;13505;45.196;5.696;2022-07-05T16:06:21;1.83;;;1.40;;
25649;SDS011;13505;45.196;5.696;2022-07-05T16:11:11;1.75;;;1.30;;
25649;SDS011;13505;45.196;5.696;2022-07-05T16:16:02;2.37;;;1.60;;
25649;SDS011;13505;45.196;5.696;2022-07-05T16:21:01;6.93;;;1.55;;
25649;SDS011;13505;45.196;5.696;2022-07-05T16:25:53;2.45;;;1.20;;
25649;SDS011;13505;45.196;5.696;2022-07-05T16:30:46;4.72;;;1.33;;
25649;SDS011;13505;45.196;5.696;2022-07-05T16:35:37;5.57;;;1.30;;
25649;SDS011;13505;45.196;5.696;2022-07-05T16:40:27;2.28;;;1.45;;
25649;SDS011;13505;45.196;5.696;2022-07-05T16:45:17;4.47;;;1.10;;
25649;SDS011;13505;45.196;5.696;2022-07-05T16:50:08;1.70;;;1.08;;
25649;SDS011;13505;45.196;5.696;2022-07-05T16:54:58;5.88;;;1.27;;
25649;SDS011;13505;45.196;5.696;2022-07-05T16:59:49;5.40;;;1.40;;
25649;SDS011;13505;45.196;5.696;2022-07-05T17:04:39;4.93;;;1.30;;
25649;SDS011;13505;45.196;5.696;2022-07-05T17:09:30;2.53;;;1.33;;
25649;SDS011;13505;45.196;5.696;2022-07-05T17:14:20;4.65;;;1.30;;
25649;SDS011;13505;45.196;5.696;2022-07-05T17:19:12;3.70;;;1.42;;
25649;SDS011;13505;45.196;5.696;2022-07-05T17:24:03;2.22;;;1.10;;
25649;SDS011;13505;45.196;5.696;2022-07-05T17:28:54;2.83;;;1.27;;
25649;SDS011;13505;45.196;5.696;2022-07-05T17:33:44;3.70;;;1.10;;
25649;SDS011;13505;45.196;5.696;2022-07-05T17:38:35;1.15;;;0.85;;
25649;SDS011;13505;45.196;5.696;2022-07-05T17:43:27;2.35;;;1.05;;
25649;SDS011;13505;45.196;5.696;2022-07-05T17:48:17;7.85;;;1.35;;
25649;SDS011;13505;45.196;5.696;2022-07-05T17:53:07;2.50;;;1.20;;
25649;SDS011;13505;45.196;5.696;2022-07-05T17:57:58;2.97;;;1.40;;
25649;SDS011;13505;45.196;5.696;2022-07-05T18:02:49;1.77;;;1.10;;
25649;SDS011;13505;45.196;5.696;2022-07-05T18:07:39;3.43;;;1.10;;
25649;SDS011;13505;45.196;5.696;2022-07-05T18:12:29;4.77;;;1.30;;
25649;SDS011;13505;45.196;5.696;2022-07-05T18:17:21;2.67;;;1.10;;
25649;SDS011;13505;45.196;5.696;2022-07-05T18:22:11;2.03;;;1.10;;
25649;SDS011;13505;45.196;5.696;2022-07-05T18:27:02;6.68;;;1.65;;
25649;SDS011;13505;45.196;5.696;2022-07-05T18:31:52;4.38;;;1.58;;
25649;SDS011;13505;45.196;5.696;2022-07-05T18:36:43;3.33;;;1.30;;
25649;SDS011;13505;45.196;5.696;2022-07-05T18:41:33;4.10;;;1.20;;
25649;SDS011;13505;45.196;5.696;2022-07-05T18:46:24;4.43;;;1.00;;
25649;SDS011;13505;45.196;5.696;2022-07-05T18:51:15;2.47;;;1.10;;
25649;SDS011;13505;45.196;5.696;2022-07-05T18:56:05;3.38;;;1.23;;
25649;SDS011;13505;45.196;5.696;2022-07-05T19:00:56;9.98;;;1.20;;
25649;SDS011;13505;45.196;5.696;2022-07-05T19:05:46;4.13;;;1.17;;
25649;SDS011;13505;45.196;5.696;2022-07-05T19:10:56;2.67;;;1.20;;
25649;SDS011;13505;45.196;5.696;2022-07-05T19:16:05;4.85;;;1.20;;
25649;SDS011;13505;45.196;5.696;2022-07-05T19:20:56;4.45;;;1.33;;
25649;SDS011;13505;45.196;5.696;2022-07-05T19:25:46;4.83;;;1.40;;
25649;SDS011;13505;45.196;5.696;2022-07-05T19:30:36;3.37;;;1.50;;
25649;SDS011;13505;45.196;5.696;2022-07-05T19:35:27;4.20;;;1.03;;
25649;SDS011;13505;45.196;5.696;2022-07-05T19:40:17;4.27;;;1.17;;
25649;SDS011;13505;45.196;5.696;2022-07-05T19:45:07;4.33;;;1.10;;
25649;SDS011;13505;45.196;5.696;2022-07-05T19:49:58;2.50;;;1.08;;
25649;SDS011;13505;45.196;5.696;2022-07-05T19:54:48;3.08;;;1.00;;
25649;SDS011;13505;45.196;5.696;2022-07-05T19:59:38;1.10;;;0.88;;
25649;SDS011;13505;45.196;5.696;2022-07-05T20:04:29;1.85;;;1.23;;
25649;SDS011;13505;45.196;5.696;2022-07-05T20:09:19;2.38;;;1.00;;
25649;SDS011;13505;45.196;5.696;2022-07-05T20:14:09;4.03;;;1.00;;
25649;SDS011;13505;45.196;5.696;2022-07-05T20:19:02;4.50;;;1.20;;
25649;SDS011;13505;45.196;5.696;2022-07-05T20:23:52;2.00;;;0.98;;
25649;SDS011;13505;45.196;5.696;2022-07-05T20:28:42;2.00;;;0.90;;
25649;SDS011;13505;45.196;5.696;2022-07-05T20:33:32;4.43;;;1.43;;
25649;SDS011;13505;45.196;5.696;2022-07-05T20:38:23;1.80;;;1.00;;
25649;SDS011;13505;45.196;5.696;2022-07-05T20:43:13;1.70;;;0.90;;
25649;SDS011;13505;45.196;5.696;2022-07-05T20:48:04;3.17;;;0.97;;
25649;SDS011;13505;45.196;5.696;2022-07-05T20:52:54;2.28;;;1.10;;
25649;SDS011;13505;45.196;5.696;2022-07-05T20:57:47;2.85;;;1.10;;
25649;SDS011;13505;45.196;5.696;2022-07-05T21:02:38;2.22;;;0.90;;
25649;SDS011;13505;45.196;5.696;2022-07-05T21:07:29;1.38;;;0.90;;
25649;SDS011;13505;45.196;5.696;2022-07-05T21:12:19;2.23;;;0.90;;
25649;SDS011;13505;45.196;5.696;2022-07-05T21:17:10;1.63;;;1.15;;
25649;SDS011;13505;45.196;5.696;2022-07-05T21:22:02;3.22;;;1.02;;
25649;SDS011;13505;45.196;5.696;2022-07-05T21:26:53;1.27;;;0.90;;
25649;SDS011;13505;45.196;5.696;2022-07-05T21:31:43;3.08;;;1.00;;
25649;SDS011;13505;45.196;5.696;2022-07-05T21:36:33;3.60;;;1.00;;
25649;SDS011;13505;45.196;5.696;2022-07-05T21:41:24;2.43;;;1.07;;
25649;SDS011;13505;45.196;5.696;2022-07-05T21:46:14;1.87;;;1.00;;
25649;SDS011;13505;45.196;5.696;2022-07-05T21:51:04;2.28;;;1.15;;
25649;SDS011;13505;45.196;5.696;2022-07-05T21:55:55;0.85;;;0.75;;
